createdAt,value
2017-02-21T00:00:56.535Z,0
2017-02-21T00:01:56.547Z,0
2017-02-21T00:03:11.095Z,0
2017-02-21T00:03:56.603Z,0
2017-02-21T00:05:11.140Z,0
2017-02-21T00:05:56.631Z,0
2017-02-21T00:06:57.046Z,0
2017-02-21T00:07:57.064Z,0
2017-02-21T00:08:57.096Z,0
2017-02-21T00:09:57.111Z,0
2017-02-21T00:11:11.651Z,0
2017-02-21T00:11:57.174Z,0
2017-02-21T00:12:57.163Z,0
2017-02-21T00:13:57.196Z,0
2017-02-21T00:14:57.210Z,0
2017-02-21T00:15:57.250Z,0
2017-02-21T00:16:57.255Z,0
2017-02-21T00:17:57.280Z,0
2017-02-21T00:18:57.402Z,0
2017-02-21T00:19:57.410Z,0
2017-02-21T00:20:57.329Z,0
2017-02-21T00:21:57.370Z,0
2017-02-21T00:22:57.373Z,0
2017-02-21T00:24:11.926Z,0
2017-02-21T00:24:57.411Z,0
2017-02-21T00:25:57.449Z,0
2017-02-21T00:26:57.458Z,0
2017-02-21T00:27:57.513Z,0
2017-02-21T00:29:57.531Z,0
2017-02-21T00:30:57.539Z,0
2017-02-21T00:31:57.566Z,0
2017-02-21T00:32:57.582Z,0
2017-02-21T00:33:57.595Z,0
2017-02-21T00:35:12.149Z,0
2017-02-21T00:35:57.650Z,0
2017-02-21T00:36:57.681Z,0
2017-02-21T00:37:57.692Z,0
2017-02-21T00:39:12.228Z,0
2017-02-21T00:39:57.724Z,0
2017-02-21T00:40:57.759Z,0
2017-02-21T00:41:57.766Z,0
2017-02-21T00:43:12.313Z,0
2017-02-21T00:43:57.808Z,0
2017-02-21T00:44:57.840Z,0
2017-02-21T00:46:57.896Z,0
2017-02-21T00:48:12.417Z,0
2017-02-21T00:48:57.927Z,0
2017-02-21T00:49:57.567Z,0
2017-02-21T00:50:57.573Z,0
2017-02-21T00:51:57.976Z,0
2017-02-21T00:52:57.623Z,0
2017-02-21T00:53:58.044Z,0
2017-02-21T00:55:12.572Z,0
2017-02-21T00:55:58.079Z,0
2017-02-21T00:57:12.611Z,0
2017-02-21T00:57:58.102Z,0
2017-02-21T00:59:26.789Z,0
2017-02-21T00:59:57.754Z,0
2017-02-21T01:00:58.159Z,0
2017-02-21T01:01:58.190Z,0
2017-02-21T01:02:57.851Z,0
2017-02-21T01:03:57.835Z,0
2017-02-21T01:04:58.252Z,0
2017-02-21T01:05:58.302Z,0
2017-02-21T01:06:58.284Z,0
2017-02-21T01:07:58.319Z,0
2017-02-21T01:08:58.365Z,0
2017-02-21T01:09:58.353Z,0
2017-02-21T01:10:58.373Z,0
2017-02-21T01:11:58.397Z,0
2017-02-21T01:12:58.432Z,0
2017-02-21T01:13:58.454Z,0
2017-02-21T01:15:12.981Z,0
2017-02-21T01:15:58.501Z,0
2017-02-21T01:16:58.504Z,0
2017-02-21T01:17:58.541Z,0
2017-02-21T01:19:58.575Z,0
2017-02-21T01:20:58.577Z,0
2017-02-21T01:21:58.228Z,0
2017-02-21T01:24:58.660Z,0
2017-02-21T01:25:58.680Z,0
2017-02-21T01:26:58.723Z,0
2017-02-21T01:27:58.732Z,0
2017-02-21T01:28:58.744Z,0
2017-02-21T01:29:58.769Z,0
2017-02-21T01:31:13.314Z,0
2017-02-21T01:31:58.811Z,0
2017-02-21T01:33:58.862Z,0
2017-02-21T01:34:58.869Z,0
2017-02-21T01:35:58.895Z,0
2017-02-21T01:37:13.451Z,0
2017-02-21T01:38:13.474Z,0
2017-02-21T01:38:58.960Z,0
2017-02-21T01:39:59.007Z,0
2017-02-21T01:41:13.519Z,0
2017-02-21T01:41:59.012Z,0
2017-02-21T01:42:59.036Z,0
2017-02-21T01:43:59.055Z,0
2017-02-21T01:44:59.101Z,0
2017-02-21T01:46:13.632Z,0
2017-02-21T01:46:59.133Z,0
2017-02-21T01:47:59.137Z,0
2017-02-21T01:48:59.164Z,0
2017-02-21T01:49:59.189Z,0
2017-02-21T01:50:59.210Z,0
2017-02-21T01:51:59.228Z,0
2017-02-21T01:53:59.305Z,0
2017-02-21T01:54:59.284Z,0
2017-02-21T01:55:59.302Z,0
2017-02-21T01:56:59.324Z,0
2017-02-21T01:58:59.381Z,0
2017-02-21T01:59:59.406Z,0
2017-02-21T02:00:59.439Z,0
2017-02-21T02:01:59.463Z,0
2017-02-21T02:02:59.470Z,0
2017-02-21T02:03:59.471Z,0
2017-02-21T02:04:59.495Z,0
2017-02-21T02:06:14.041Z,0
2017-02-21T02:06:59.527Z,0
2017-02-21T02:07:59.560Z,0
2017-02-21T02:08:59.600Z,0
2017-02-21T02:09:59.635Z,0
2017-02-21T02:10:59.861Z,0
2017-02-21T02:12:14.158Z,0
2017-02-21T02:12:59.667Z,0
2017-02-21T02:13:59.671Z,0
2017-02-21T02:14:59.711Z,0
2017-02-21T02:15:59.722Z,0
2017-02-21T02:16:59.741Z,0
2017-02-21T02:18:14.286Z,0
2017-02-21T02:18:59.788Z,0
2017-02-21T02:19:59.797Z,0
2017-02-21T02:20:59.817Z,0
2017-02-21T02:21:59.844Z,0
2017-02-21T02:22:59.883Z,0
2017-02-21T02:23:59.919Z,0
2017-02-21T02:24:59.913Z,0
2017-02-21T02:25:59.916Z,0
2017-02-21T02:26:59.957Z,0
2017-02-21T02:27:59.984Z,0
2017-02-21T02:28:59.992Z,0
2017-02-21T02:30:00.007Z,0
2017-02-21T02:31:00.030Z,0
2017-02-21T02:32:00.055Z,0
2017-02-21T02:33:00.077Z,0
2017-02-21T02:34:14.613Z,0
2017-02-21T02:35:00.113Z,0
2017-02-21T02:36:00.129Z,0
2017-02-21T02:37:00.146Z,0
2017-02-21T02:38:14.696Z,0
2017-02-21T02:39:00.188Z,0
2017-02-21T02:40:00.235Z,0
2017-02-21T02:41:00.235Z,0
2017-02-21T02:42:00.263Z,0
2017-02-21T02:43:14.797Z,0
2017-02-21T02:44:00.289Z,0
2017-02-21T02:45:00.307Z,0
2017-02-21T02:46:59.973Z,0
2017-02-21T02:48:00.403Z,0
2017-02-21T02:49:00.012Z,0
2017-02-21T02:50:14.554Z,0
2017-02-21T02:51:00.059Z,0
2017-02-21T02:51:59.683Z,0
2017-02-21T02:53:00.480Z,0
2017-02-21T02:54:00.111Z,0
2017-02-21T02:56:15.067Z,0
2017-02-21T02:57:00.568Z,0
2017-02-21T02:58:00.594Z,0
2017-02-21T03:00:00.628Z,0
2017-02-21T03:01:00.644Z,0
2017-02-21T03:02:00.284Z,0
2017-02-21T03:03:00.691Z,0
2017-02-21T03:04:00.761Z,0
2017-02-21T03:05:00.721Z,0
2017-02-21T03:06:15.267Z,0
2017-02-21T03:07:00.758Z,0
2017-02-21T03:08:00.779Z,0
2017-02-21T03:09:00.803Z,0
2017-02-21T03:10:00.827Z,0
2017-02-21T03:11:00.855Z,0
2017-02-21T03:12:00.879Z,0
2017-02-21T03:13:00.896Z,0
2017-02-21T03:15:00.938Z,0
2017-02-21T03:16:00.952Z,0
2017-02-21T03:17:15.506Z,0
2017-02-21T03:18:00.989Z,0
2017-02-21T03:19:01.013Z,0
2017-02-21T03:20:01.038Z,0
2017-02-21T03:21:15.574Z,0
2017-02-21T03:22:01.089Z,0
2017-02-21T03:24:01.112Z,0
2017-02-21T03:25:01.136Z,0
2017-02-21T03:26:01.149Z,0
2017-02-21T03:27:01.170Z,0
2017-02-21T03:28:01.215Z,0
2017-02-21T03:29:01.213Z,0
2017-02-21T03:30:15.798Z,0
2017-02-21T03:31:01.263Z,0
2017-02-21T03:32:01.275Z,0
2017-02-21T03:33:01.294Z,0
2017-02-21T03:34:01.320Z,0
2017-02-21T03:35:01.350Z,0
2017-02-21T03:36:01.351Z,0
2017-02-21T03:37:01.372Z,0
2017-02-21T03:38:01.393Z,0
2017-02-21T03:39:01.437Z,0
2017-02-21T03:40:01.438Z,0
2017-02-21T03:41:01.471Z,0
2017-02-21T03:42:16.007Z,0
2017-02-21T03:43:01.512Z,0
2017-02-21T03:44:16.043Z,0
2017-02-21T03:45:16.083Z,0
2017-02-21T03:46:01.195Z,0
2017-02-21T03:47:16.137Z,0
2017-02-21T03:48:01.604Z,0
2017-02-21T03:49:01.650Z,0
2017-02-21T03:50:01.642Z,0
2017-02-21T03:51:16.216Z,0
2017-02-21T03:52:01.681Z,0
2017-02-21T03:53:30.371Z,0
2017-02-21T03:54:01.720Z,0
2017-02-21T03:55:01.766Z,0
2017-02-21T03:56:01.778Z,0
2017-02-21T03:57:01.796Z,0
2017-02-21T03:58:01.824Z,0
2017-02-21T03:59:01.833Z,0
2017-02-21T04:00:01.847Z,0
2017-02-21T04:01:01.868Z,0
2017-02-21T04:02:01.885Z,0
2017-02-21T04:03:01.913Z,0
2017-02-21T04:04:01.922Z,0
2017-02-21T04:05:01.952Z,0
2017-02-21T04:06:01.988Z,0
2017-02-21T04:07:16.526Z,0
2017-02-21T04:08:16.543Z,0
2017-02-21T04:09:16.558Z,0
2017-02-21T04:10:02.064Z,0
2017-02-21T04:11:02.089Z,0
2017-02-21T04:12:02.110Z,0
2017-02-21T04:13:02.114Z,0
2017-02-21T04:14:02.141Z,0
2017-02-21T04:15:02.366Z,0
2017-02-21T04:16:02.173Z,0
2017-02-21T04:17:02.191Z,0
2017-02-21T04:18:02.216Z,0
2017-02-21T04:19:16.761Z,0
2017-02-21T04:20:02.273Z,0
2017-02-21T04:21:02.290Z,0
2017-02-21T04:22:02.326Z,0
2017-02-21T04:23:02.323Z,0
2017-02-21T04:24:02.369Z,0
2017-02-21T04:25:16.509Z,0
2017-02-21T04:26:02.396Z,0
2017-02-21T04:27:02.397Z,0
2017-02-21T04:28:02.427Z,0
2017-02-21T04:29:02.453Z,0
2017-02-21T04:30:02.469Z,0
2017-02-21T04:31:02.483Z,0
2017-02-21T04:32:17.030Z,0
2017-02-21T04:33:02.534Z,0
2017-02-21T04:35:02.561Z,0
2017-02-21T04:36:02.593Z,0
2017-02-21T04:37:02.599Z,0
2017-02-21T04:38:02.650Z,0
2017-02-21T04:39:02.639Z,0
2017-02-21T04:40:02.664Z,0
2017-02-21T04:41:17.210Z,0
2017-02-21T04:42:02.705Z,0
2017-02-21T04:43:02.341Z,0
2017-02-21T04:44:02.359Z,0
2017-02-21T04:46:02.804Z,0
2017-02-21T04:47:02.427Z,0
2017-02-21T04:49:02.474Z,0
2017-02-21T04:50:02.881Z,0
2017-02-21T04:51:02.513Z,0
2017-02-21T04:52:02.909Z,0
2017-02-21T04:53:02.173Z,0
2017-02-21T04:54:02.949Z,0
2017-02-21T04:55:02.588Z,0
2017-02-21T04:56:17.155Z,0
2017-02-21T04:57:03.024Z,0
2017-02-21T04:58:03.027Z,0
2017-02-21T04:59:03.123Z,0
2017-02-21T05:00:02.705Z,0
2017-02-21T05:01:17.615Z,0
2017-02-21T05:02:03.143Z,0
2017-02-21T05:03:03.141Z,0
2017-02-21T05:04:02.768Z,0
2017-02-21T05:05:03.204Z,0
2017-02-21T05:06:03.203Z,0
2017-02-21T05:07:03.237Z,0
2017-02-21T05:08:03.248Z,0
2017-02-21T05:09:03.284Z,0
2017-02-21T05:10:02.889Z,0
2017-02-21T05:11:03.310Z,0
2017-02-21T05:12:03.317Z,0
2017-02-21T05:13:03.353Z,0
2017-02-21T05:15:03.375Z,0
2017-02-21T05:16:03.392Z,0
2017-02-21T05:17:03.439Z,0
2017-02-21T05:18:17.967Z,0
2017-02-21T05:19:03.481Z,0
2017-02-21T05:20:03.484Z,0
2017-02-21T05:21:18.041Z,0
2017-02-21T05:22:03.550Z,0
2017-02-21T05:23:03.554Z,0
2017-02-21T05:24:03.560Z,0
2017-02-21T05:25:03.618Z,0
2017-02-21T05:26:03.647Z,0
2017-02-21T05:27:03.635Z,0
2017-02-21T05:28:18.167Z,0
2017-02-21T05:29:03.677Z,0
2017-02-21T05:30:03.688Z,0
2017-02-21T05:31:03.732Z,0
2017-02-21T05:32:03.725Z,0
2017-02-21T05:33:03.763Z,0
2017-02-21T05:34:03.762Z,0
2017-02-21T05:35:03.804Z,0
2017-02-21T05:36:03.805Z,0
2017-02-21T05:37:03.860Z,0
2017-02-21T05:38:03.866Z,0
2017-02-21T05:40:03.919Z,0
2017-02-21T05:42:03.942Z,0
2017-02-21T05:43:03.978Z,0
2017-02-21T05:44:32.633Z,0
2017-02-21T05:45:04.015Z,0
2017-02-21T05:46:04.015Z,0
2017-02-21T05:47:04.035Z,0
2017-02-21T05:48:04.044Z,0
2017-02-21T05:49:04.083Z,4
2017-02-21T05:50:04.112Z,4
2017-02-21T05:51:04.104Z,0
2017-02-21T05:52:18.656Z,4
2017-02-21T05:54:04.182Z,8
2017-02-21T05:56:04.207Z,8
2017-02-21T05:58:04.247Z,12
2017-02-21T06:00:18.827Z,16
2017-02-21T06:01:04.339Z,16
2017-02-21T06:03:03.999Z,24
2017-02-21T06:04:04.383Z,24
2017-02-21T06:05:04.420Z,24
2017-02-21T06:06:18.942Z,32
2017-02-21T06:07:04.484Z,32
2017-02-21T06:08:18.986Z,36
2017-02-21T06:10:04.495Z,44
2017-02-21T06:11:04.560Z,44
2017-02-21T06:12:04.535Z,44
2017-02-21T06:13:04.585Z,48
2017-02-21T06:14:04.575Z,52
2017-02-21T06:15:04.619Z,52
2017-02-21T06:16:19.142Z,52
2017-02-21T06:17:04.655Z,56
2017-02-21T06:18:04.655Z,56
2017-02-21T06:19:04.678Z,60
2017-02-21T06:20:04.696Z,64
2017-02-21T06:21:04.749Z,64
2017-02-21T06:22:19.263Z,72
2017-02-21T06:23:04.772Z,72
2017-02-21T06:24:04.770Z,76
2017-02-21T06:25:19.340Z,80
2017-02-21T06:26:19.344Z,80
2017-02-21T06:27:04.855Z,80
2017-02-21T06:28:19.393Z,88
2017-02-21T06:29:04.895Z,88
2017-02-21T06:30:04.899Z,92
2017-02-21T06:31:19.445Z,92
2017-02-21T06:32:04.950Z,96
2017-02-21T06:33:04.966Z,96
2017-02-21T06:34:04.988Z,92
2017-02-21T06:35:05.024Z,92
2017-02-21T06:36:05.027Z,92
2017-02-21T06:37:05.048Z,96
2017-02-21T06:38:05.059Z,100
2017-02-21T06:39:05.111Z,112
2017-02-21T06:40:19.629Z,148
2017-02-21T06:41:05.132Z,172
2017-02-21T06:42:05.161Z,208
2017-02-21T06:43:04.778Z,236
2017-02-21T06:44:05.200Z,260
2017-02-21T06:45:04.826Z,276
2017-02-21T06:46:05.221Z,284
2017-02-21T06:47:05.248Z,296
2017-02-21T06:48:19.799Z,308
2017-02-21T06:49:04.906Z,320
2017-02-21T06:50:19.834Z,332
2017-02-21T06:51:04.939Z,344
2017-02-21T06:52:05.358Z,348
2017-02-21T06:53:05.388Z,352
2017-02-21T06:54:05.393Z,360
2017-02-21T06:55:05.615Z,376
2017-02-21T06:56:05.425Z,372
2017-02-21T06:57:19.983Z,380
2017-02-21T06:58:05.094Z,404
2017-02-21T06:59:20.027Z,412
2017-02-21T07:00:20.075Z,404
2017-02-21T07:01:05.554Z,412
2017-02-21T07:02:05.557Z,428
2017-02-21T07:03:20.097Z,400
2017-02-21T07:04:05.585Z,368
2017-02-21T07:05:05.255Z,356
2017-02-21T07:06:05.642Z,372
2017-02-21T07:07:20.177Z,392
2017-02-21T07:08:05.705Z,436
2017-02-21T07:09:20.221Z,488
2017-02-21T07:10:05.339Z,508
2017-02-21T07:11:20.270Z,556
2017-02-21T07:12:05.758Z,576
2017-02-21T07:13:05.772Z,580
2017-02-21T07:14:05.786Z,564
2017-02-21T07:15:05.816Z,604
2017-02-21T07:16:20.367Z,652
2017-02-21T07:17:05.856Z,676
2017-02-21T07:18:05.911Z,696
2017-02-21T07:19:20.422Z,688
2017-02-21T07:20:05.149Z,676
2017-02-21T07:21:05.933Z,684
2017-02-21T07:22:20.487Z,632
2017-02-21T07:23:05.974Z,612
2017-02-21T07:24:06.005Z,564
2017-02-21T07:25:20.544Z,604
2017-02-21T07:26:06.039Z,616
2017-02-21T07:27:05.711Z,616
2017-02-21T07:28:06.076Z,592
2017-02-21T07:29:06.135Z,564
2017-02-21T07:30:06.140Z,584
2017-02-21T07:31:06.144Z,612
2017-02-21T07:32:06.160Z,624
2017-02-21T07:33:06.175Z,624
2017-02-21T07:34:06.224Z,620
2017-02-21T07:35:20.749Z,584
2017-02-21T07:36:06.241Z,620
2017-02-21T07:37:06.261Z,676
2017-02-21T07:38:06.279Z,716
2017-02-21T07:39:20.827Z,740
2017-02-21T07:42:06.363Z,936
2017-02-21T07:43:06.393Z,972
2017-02-21T07:44:20.929Z,932
2017-02-21T07:45:06.443Z,888
2017-02-21T07:46:06.443Z,804
2017-02-21T07:47:21.003Z,712
2017-02-21T07:48:06.484Z,716
2017-02-21T07:49:06.531Z,772
2017-02-21T07:50:06.534Z,684
2017-02-21T07:51:21.076Z,728
2017-02-21T07:52:06.573Z,792
2017-02-21T07:53:06.606Z,784
2017-02-21T07:54:21.139Z,672
2017-02-21T07:55:06.239Z,660
2017-02-21T07:56:06.680Z,620
2017-02-21T07:57:06.667Z,544
2017-02-21T07:58:21.260Z,568
2017-02-21T08:01:06.766Z,788
2017-02-21T08:02:06.774Z,752
2017-02-21T08:03:06.794Z,764
2017-02-21T08:04:06.823Z,752
2017-02-21T08:05:06.838Z,752
2017-02-21T08:06:21.381Z,696
2017-02-21T08:07:06.871Z,604
2017-02-21T08:08:06.908Z,524
2017-02-21T08:09:06.534Z,576
2017-02-21T08:10:06.935Z,516
2017-02-21T08:11:06.973Z,560
2017-02-21T08:12:06.974Z,540
2017-02-21T08:13:06.996Z,456
2017-02-21T08:14:07.034Z,428
2017-02-21T08:15:07.069Z,408
2017-02-21T08:16:06.685Z,444
2017-02-21T08:17:07.100Z,484
2017-02-21T08:18:07.103Z,468
2017-02-21T08:19:07.153Z,476
2017-02-21T08:20:07.152Z,448
2017-02-21T08:22:07.193Z,512
2017-02-21T08:23:07.198Z,564
2017-02-21T08:24:07.224Z,536
2017-02-21T08:25:07.247Z,516
2017-02-21T08:26:07.266Z,508
2017-02-21T08:27:07.296Z,536
2017-02-21T08:28:06.928Z,628
2017-02-21T08:29:21.852Z,672
2017-02-21T08:30:07.356Z,716
2017-02-21T08:31:07.366Z,536
2017-02-21T08:32:07.381Z,472
2017-02-21T08:33:07.417Z,400
2017-02-21T08:34:07.076Z,432
2017-02-21T08:35:07.474Z,492
2017-02-21T08:36:07.476Z,532
2017-02-21T08:37:07.483Z,724
2017-02-21T08:39:07.539Z,880
2017-02-21T08:40:07.553Z,888
2017-02-21T08:43:07.624Z,968
2017-02-21T08:44:07.653Z,984
2017-02-21T08:45:22.176Z,1052
2017-02-21T08:46:07.673Z,1060
2017-02-21T08:47:22.213Z,1052
2017-02-21T08:48:22.232Z,1064
2017-02-21T08:49:07.732Z,1132
2017-02-21T08:50:07.366Z,1120
2017-02-21T08:51:07.765Z,1124
2017-02-21T08:52:07.845Z,1156
2017-02-21T08:53:07.827Z,1156
2017-02-21T08:54:22.354Z,1124
2017-02-21T08:55:07.848Z,1032
2017-02-21T08:56:07.871Z,1116
2017-02-21T08:57:07.889Z,1188
2017-02-21T08:58:22.445Z,1240
2017-02-21T08:59:07.982Z,1296
2017-02-21T09:00:07.947Z,1392
2017-02-21T09:01:07.974Z,1312
2017-02-21T09:03:08.009Z,1040
2017-02-21T09:05:08.060Z,940
2017-02-21T09:07:08.110Z,816
2017-02-21T09:08:07.724Z,748
2017-02-21T09:09:08.146Z,680
2017-02-21T09:10:22.675Z,624
2017-02-21T09:11:08.198Z,584
2017-02-21T09:13:22.741Z,600
2017-02-21T09:14:08.228Z,676
2017-02-21T09:15:07.875Z,1036
2017-02-21T09:16:08.291Z,1200
2017-02-21T09:18:08.318Z,968
2017-02-21T09:19:08.377Z,1068
2017-02-21T09:20:08.367Z,1292
2017-02-21T09:21:08.368Z,1588
2017-02-21T09:23:22.950Z,1796
2017-02-21T09:24:08.444Z,1996
2017-02-21T09:25:22.987Z,2104
2017-02-21T09:26:23.000Z,2132
2017-02-21T09:27:08.500Z,2120
2017-02-21T09:28:08.529Z,2120
2017-02-21T09:29:08.548Z,2272
2017-02-21T09:30:08.556Z,2280
2017-02-21T09:31:08.571Z,2260
2017-02-21T09:32:23.125Z,2188
2017-02-21T09:33:08.615Z,2196
2017-02-21T09:34:08.641Z,2392
2017-02-21T09:35:08.656Z,2500
2017-02-21T09:36:08.686Z,2740
2017-02-21T09:37:08.691Z,2944
2017-02-21T09:38:08.713Z,2936
2017-02-21T09:39:08.358Z,2912
2017-02-21T09:40:08.760Z,2940
2017-02-21T09:41:22.912Z,2852
2017-02-21T09:42:08.788Z,2612
2017-02-21T09:43:08.826Z,2540
2017-02-21T09:44:23.360Z,2492
2017-02-21T09:45:23.378Z,2588
2017-02-21T09:46:08.887Z,2688
2017-02-21T09:47:08.902Z,2736
2017-02-21T09:48:08.920Z,3236
2017-02-21T09:49:08.965Z,3732
2017-02-21T09:50:08.953Z,4004
2017-02-21T09:51:08.988Z,4176
2017-02-21T09:52:08.605Z,4284
2017-02-21T09:53:09.015Z,4624
2017-02-21T09:54:09.038Z,4960
2017-02-21T09:55:23.612Z,5776
2017-02-21T09:56:09.083Z,5508
2017-02-21T09:57:23.630Z,5056
2017-02-21T09:58:23.648Z,4864
2017-02-21T09:59:09.132Z,4692
2017-02-21T10:00:23.682Z,4076
2017-02-21T10:01:09.199Z,3388
2017-02-21T10:02:08.823Z,2556
2017-02-21T10:03:09.249Z,1768
2017-02-21T10:04:09.249Z,1148
2017-02-21T10:05:09.258Z,832
2017-02-21T10:06:23.803Z,1032
2017-02-21T10:07:09.302Z,1340
2017-02-21T10:08:09.323Z,1732
2017-02-21T10:09:09.359Z,2052
2017-02-21T10:10:09.353Z,2392
2017-02-21T10:11:09.388Z,2280
2017-02-21T10:12:09.403Z,1884
2017-02-21T10:13:23.950Z,1972
2017-02-21T10:14:09.452Z,2116
2017-02-21T10:15:23.614Z,2444
2017-02-21T10:16:09.483Z,2604
2017-02-21T10:18:09.145Z,3200
2017-02-21T10:19:09.153Z,3472
2017-02-21T10:20:09.184Z,3804
2017-02-21T10:21:09.610Z,4072
2017-02-21T10:22:09.234Z,3992
2017-02-21T10:23:09.627Z,3756
2017-02-21T10:24:24.175Z,3432
2017-02-21T10:25:09.664Z,3308
2017-02-21T10:26:09.682Z,2980
2017-02-21T10:27:09.714Z,2764
2017-02-21T10:28:09.731Z,2672
2017-02-21T10:29:24.283Z,3160
2017-02-21T10:30:09.783Z,3132
2017-02-21T10:31:09.776Z,3276
2017-02-21T10:32:09.800Z,3092
2017-02-21T10:33:09.825Z,2500
2017-02-21T10:34:24.363Z,3336
2017-02-21T10:35:09.867Z,4668
2017-02-21T10:36:09.502Z,4084
2017-02-21T10:37:09.897Z,4372
2017-02-21T10:38:24.444Z,5152
2017-02-21T10:39:09.966Z,5496
2017-02-21T10:40:09.961Z,6624
2017-02-21T10:41:09.641Z,7756
2017-02-21T10:42:10.000Z,9364
2017-02-21T10:43:09.643Z,8100
2017-02-21T10:44:09.667Z,7168
2017-02-21T10:45:24.199Z,6844
2017-02-21T10:48:10.116Z,9272
2017-02-21T10:49:24.668Z,6988
2017-02-21T10:50:09.776Z,5644
2017-02-21T10:51:10.185Z,5492
2017-02-21T10:52:09.813Z,4992
2017-02-21T10:53:09.831Z,6104
2017-02-21T10:54:09.853Z,6108
2017-02-21T10:56:10.281Z,5620
2017-02-21T10:57:09.918Z,5064
2017-02-21T10:58:09.940Z,4768
2017-02-21T10:59:10.369Z,3832
2017-02-21T11:00:09.983Z,4876
2017-02-21T11:01:24.910Z,4744
2017-02-21T11:02:10.404Z,4624
2017-02-21T11:03:10.446Z,4452
2017-02-21T11:04:10.056Z,3544
2017-02-21T11:05:10.074Z,4344
2017-02-21T11:06:10.107Z,4268
2017-02-21T11:07:10.123Z,4248
2017-02-21T11:08:10.534Z,4400
2017-02-21T11:09:10.545Z,4492
2017-02-21T11:10:09.790Z,4380
2017-02-21T11:11:10.582Z,4836
2017-02-21T11:13:10.636Z,4468
2017-02-21T11:14:10.259Z,5628
2017-02-21T11:15:10.282Z,5512
2017-02-21T11:16:25.215Z,5620
2017-02-21T11:17:10.716Z,5504
2017-02-21T11:18:10.742Z,5332
2017-02-21T11:19:25.271Z,5076
2017-02-21T11:20:10.389Z,5956
2017-02-21T11:21:25.317Z,5676
2017-02-21T11:22:10.819Z,5900
2017-02-21T11:23:25.355Z,5356
2017-02-21T11:24:10.857Z,4988
2017-02-21T11:25:10.867Z,4968
2017-02-21T11:26:11.186Z,5452
2017-02-21T11:27:10.914Z,4276
2017-02-21T11:28:10.935Z,4336
2017-02-21T11:29:10.585Z,6092
2017-02-21T11:30:10.973Z,4560
2017-02-21T11:31:10.988Z,4164
2017-02-21T11:32:10.660Z,5180
2017-02-21T11:33:11.039Z,5712
2017-02-21T11:34:11.052Z,6020
2017-02-21T11:35:10.690Z,6056
2017-02-21T11:36:11.119Z,6696
2017-02-21T11:37:11.126Z,6856
2017-02-21T11:38:10.755Z,6828
2017-02-21T11:39:10.768Z,6916
2017-02-21T11:40:25.716Z,7904
2017-02-21T11:41:11.207Z,6648
2017-02-21T11:43:11.245Z,8208
2017-02-21T11:44:11.256Z,7876
2017-02-21T11:45:25.419Z,8424
2017-02-21T11:47:11.329Z,6824
2017-02-21T11:48:40.012Z,6204
2017-02-21T11:49:11.362Z,7252
2017-02-21T11:50:11.013Z,5844
2017-02-21T11:51:11.403Z,6336
2017-02-21T11:52:11.429Z,6360
2017-02-21T11:53:11.951Z,6100
2017-02-21T11:54:11.467Z,6552
2017-02-21T11:55:26.036Z,7712
2017-02-21T11:56:11.156Z,8272
2017-02-21T11:57:11.168Z,8364
2017-02-21T11:58:11.586Z,7828
2017-02-21T11:59:26.118Z,7836
2017-02-21T12:00:11.607Z,7932
2017-02-21T12:01:11.621Z,7188
2017-02-21T12:02:11.672Z,7032
2017-02-21T12:03:11.272Z,6512
2017-02-21T12:05:26.239Z,7724
2017-02-21T12:06:11.727Z,6676
2017-02-21T12:07:26.283Z,6328
2017-02-21T12:09:11.801Z,5124
2017-02-21T12:10:11.488Z,5764
2017-02-21T12:11:11.843Z,6016
2017-02-21T12:12:11.859Z,6556
2017-02-21T12:13:11.909Z,6128
2017-02-21T12:14:11.914Z,6212
2017-02-21T12:15:11.925Z,7516
2017-02-21T12:16:11.941Z,5952
2017-02-21T12:17:11.970Z,6044
2017-02-21T12:18:11.989Z,5592
2017-02-21T12:19:12.003Z,5720
2017-02-21T12:20:26.560Z,5124
2017-02-21T12:21:12.062Z,4992
2017-02-21T12:22:12.069Z,5612
2017-02-21T12:23:12.102Z,3040
2017-02-21T12:24:26.642Z,4344
2017-02-21T12:25:12.147Z,4088
2017-02-21T12:26:12.161Z,3796
2017-02-21T12:27:12.207Z,3452
2017-02-21T12:28:11.817Z,2172
2017-02-21T12:30:26.782Z,2572
2017-02-21T12:31:12.265Z,2324
2017-02-21T12:32:26.810Z,2748
2017-02-21T12:34:12.339Z,3244
2017-02-21T12:35:26.886Z,3184
2017-02-21T12:36:26.901Z,3776
2017-02-21T12:37:12.416Z,4308
2017-02-21T12:38:12.431Z,3804
2017-02-21T12:39:12.447Z,4144
2017-02-21T12:40:26.981Z,4312
2017-02-21T12:42:12.511Z,5080
2017-02-21T12:43:12.528Z,5400
2017-02-21T12:44:12.150Z,5356
2017-02-21T12:45:12.580Z,5276
2017-02-21T12:46:27.108Z,5412
2017-02-21T12:47:12.227Z,5132
2017-02-21T12:48:12.633Z,5120
2017-02-21T12:49:12.650Z,5064
2017-02-21T12:50:12.677Z,3764
2017-02-21T12:51:27.225Z,4848
2017-02-21T12:52:12.718Z,5096
2017-02-21T12:54:12.755Z,4056
2017-02-21T12:55:27.302Z,4888
2017-02-21T12:56:12.808Z,5480
2017-02-21T12:57:12.440Z,5764
2017-02-21T12:58:12.848Z,4792
2017-02-21T12:59:12.471Z,5328
2017-02-21T13:00:27.407Z,5664
2017-02-21T13:02:12.556Z,3840
2017-02-21T13:03:12.555Z,3172
2017-02-21T13:04:12.589Z,2652
2017-02-21T13:05:12.601Z,2584
2017-02-21T13:06:12.624Z,2344
2017-02-21T13:07:12.658Z,2572
2017-02-21T13:08:12.658Z,2908
2017-02-21T13:09:12.696Z,3056
2017-02-21T13:10:12.730Z,2596
2017-02-21T13:11:12.338Z,2540
2017-02-21T13:12:27.277Z,2032
2017-02-21T13:13:12.000Z,1940
2017-02-21T13:14:12.787Z,2136
2017-02-21T13:15:27.341Z,2432
2017-02-21T13:16:12.839Z,2648
2017-02-21T13:17:27.800Z,2972
2017-02-21T13:18:12.933Z,3116
2017-02-21T13:19:12.506Z,3328
2017-02-21T13:20:12.932Z,3460
2017-02-21T13:21:13.327Z,3548
2017-02-21T13:22:13.361Z,3448
2017-02-21T13:23:27.897Z,3208
2017-02-21T13:24:13.036Z,3176
2017-02-21T13:25:12.661Z,3348
2017-02-21T13:26:12.658Z,3640
2017-02-21T13:27:27.976Z,4084
2017-02-21T13:29:13.104Z,3964
2017-02-21T13:30:12.747Z,4048
2017-02-21T13:32:12.800Z,3544
2017-02-21T13:33:13.594Z,3492
2017-02-21T13:34:12.822Z,3616
2017-02-21T13:35:12.872Z,3716
2017-02-21T13:36:13.644Z,3964
2017-02-21T13:37:13.280Z,4296
2017-02-21T13:38:12.916Z,4620
2017-02-21T13:39:42.769Z,4856
2017-02-21T13:40:12.961Z,4948
2017-02-21T13:41:13.741Z,4892
2017-02-21T13:42:27.913Z,5108
2017-02-21T13:43:13.783Z,4804
2017-02-21T13:44:13.820Z,4612
2017-02-21T13:45:13.834Z,4380
2017-02-21T13:46:13.852Z,4080
2017-02-21T13:47:13.884Z,3852
2017-02-21T13:48:13.125Z,3780
2017-02-21T13:49:13.929Z,3852
2017-02-21T13:50:14.130Z,3948
2017-02-21T13:51:14.000Z,4100
2017-02-21T13:52:13.982Z,4236
2017-02-21T13:54:13.248Z,4376
2017-02-21T13:55:28.565Z,4356
2017-02-21T13:56:14.054Z,4580
2017-02-21T13:57:14.077Z,4444
2017-02-21T13:58:13.730Z,5252
2017-02-21T13:59:14.132Z,4476
2017-02-21T14:00:14.141Z,4476
2017-02-21T14:02:13.849Z,4108
2017-02-21T14:03:13.831Z,4164
2017-02-21T14:04:13.469Z,3892
2017-02-21T14:05:13.870Z,3860
2017-02-21T14:06:14.270Z,3860
2017-02-21T14:07:14.299Z,3996
2017-02-21T14:08:13.922Z,4120
2017-02-21T14:09:13.939Z,4152
2017-02-21T14:10:14.368Z,4008
2017-02-21T14:11:28.911Z,5828
2017-02-21T14:12:14.548Z,4660
2017-02-21T14:13:14.421Z,3932
2017-02-21T14:14:14.449Z,3944
2017-02-21T14:15:28.995Z,5328
2017-02-21T14:16:13.704Z,3904
2017-02-21T14:17:14.508Z,4444
2017-02-21T14:18:14.144Z,4840
2017-02-21T14:19:14.153Z,3316
2017-02-21T14:20:14.182Z,3184
2017-02-21T14:21:29.121Z,3096
2017-02-21T14:22:14.224Z,2980
2017-02-21T14:23:14.633Z,3112
2017-02-21T14:25:14.679Z,3040
2017-02-21T14:26:29.217Z,3072
2017-02-21T14:27:14.708Z,3140
2017-02-21T14:28:14.345Z,3032
2017-02-21T14:29:14.366Z,2848
2017-02-21T14:30:14.023Z,2684
2017-02-21T14:31:14.444Z,2576
2017-02-21T14:32:14.845Z,2644
2017-02-21T14:33:14.843Z,2620
2017-02-21T14:34:14.860Z,2608
2017-02-21T14:35:14.876Z,2576
2017-02-21T14:36:14.898Z,2668
2017-02-21T14:37:14.935Z,2788
2017-02-21T14:38:14.941Z,2876
2017-02-21T14:39:14.989Z,4008
2017-02-21T14:40:14.607Z,2992
2017-02-21T14:41:14.618Z,2932
2017-02-21T14:42:15.022Z,3120
2017-02-21T14:43:15.044Z,3384
2017-02-21T14:44:14.980Z,4752
2017-02-21T14:45:14.315Z,4784
2017-02-21T14:46:15.133Z,4704
2017-02-21T14:47:29.270Z,4568
2017-02-21T14:48:14.378Z,4076
2017-02-21T14:49:15.209Z,2944
2017-02-21T14:50:14.956Z,2836
2017-02-21T14:51:14.838Z,2804
2017-02-21T14:52:14.869Z,2744
2017-02-21T14:53:14.889Z,2684
2017-02-21T14:54:15.285Z,2724
2017-02-21T14:55:15.295Z,2632
2017-02-21T14:56:14.931Z,2512
2017-02-21T14:57:14.956Z,2408